sensor_id;sensor_type;location;lat;lon;timestamp;pressure;altitude;pressure_sealevel;temperature;humidity
71970;BME280;59838;52.152;5.436;2023-12-20T00:01:03;101624.56;;;5.08;100.00
71970;BME280;59838;52.152;5.436;2023-12-20T00:03:30;101618.84;;;5.05;100.00
71970;BME280;59838;52.152;5.436;2023-12-20T00:06:08;101611.63;;;4.99;100.00
71970;BME280;59838;52.152;5.436;2023-12-20T00:08:34;101613.38;;;4.98;100.00
71970;BME280;59838;52.152;5.436;2023-12-20T00:11:01;101605.78;;;4.97;100.00
71970;BME280;59838;52.152;5.436;2023-12-20T00:13:28;101618.22;;;4.91;100.00
71970;BME280;59838;52.152;5.436;2023-12-20T00:15:54;101615.34;;;4.85;100.00
71970;BME280;59838;52.152;5.436;2023-12-20T00:18:21;101608.00;;;4.80;100.00
71970;BME280;59838;52.152;5.436;2023-12-20T00:20:47;101610.13;;;4.75;100.00
71970;BME280;59838;52.152;5.436;2023-12-20T00:23:14;101607.00;;;4.71;100.00
71970;BME280;59838;52.152;5.436;2023-12-20T00:25:40;101602.09;;;4.68;100.00
71970;BME280;59838;52.152;5.436;2023-12-20T00:28:07;101601.50;;;4.65;100.00
71970;BME280;59838;52.152;5.436;2023-12-20T00:30:33;101596.63;;;4.62;100.00
71970;BME280;59838;52.152;5.436;2023-12-20T00:33:00;101601.31;;;4.56;100.00
71970;BME280;59838;52.152;5.436;2023-12-20T00:35:27;101607.66;;;4.52;100.00
71970;BME280;59838;52.152;5.436;2023-12-20T00:37:53;101609.41;;;4.52;100.00
71970;BME280;59838;52.152;5.436;2023-12-20T00:40:20;101607.91;;;4.49;100.00
71970;BME280;59838;52.152;5.436;2023-12-20T00:42:47;101619.25;;;4.47;100.00
71970;BME280;59838;52.152;5.436;2023-12-20T00:45:14;101610.03;;;4.44;100.00
71970;BME280;59838;52.152;5.436;2023-12-20T00:47:40;101614.22;;;4.45;100.00
71970;BME280;59838;52.152;5.436;2023-12-20T00:50:08;101618.69;;;4.43;100.00
71970;BME280;59838;52.152;5.436;2023-12-20T00:52:36;101601.88;;;4.39;100.00
71970;BME280;59838;52.152;5.436;2023-12-20T00:55:03;101602.00;;;4.37;100.00
71970;BME280;59838;52.152;5.436;2023-12-20T00:57:30;101603.16;;;4.33;100.00
71970;BME280;59838;52.152;5.436;2023-12-20T00:59:57;101609.50;;;4.29;100.00
71970;BME280;59838;52.152;5.436;2023-12-20T01:02:24;101604.72;;;4.25;100.00
71970;BME280;59838;52.152;5.436;2023-12-20T01:04:51;101600.75;;;4.20;100.00
71970;BME280;59838;52.152;5.436;2023-12-20T01:07:18;101598.41;;;4.17;100.00
71970;BME280;59838;52.152;5.436;2023-12-20T01:09:45;101595.16;;;4.15;100.00
71970;BME280;59838;52.152;5.436;2023-12-20T01:12:11;101587.44;;;4.15;100.00
71970;BME280;59838;52.152;5.436;2023-12-20T01:14:38;101587.44;;;4.15;100.00
71970;BME280;59838;52.152;5.436;2023-12-20T01:17:06;101591.06;;;4.13;100.00
71970;BME280;59838;52.152;5.436;2023-12-20T01:19:32;101591.06;;;4.13;100.00
71970;BME280;59838;52.152;5.436;2023-12-20T01:21:59;101585.09;;;4.12;100.00
71970;BME280;59838;52.152;5.436;2023-12-20T01:24:25;101596.44;;;4.10;100.00
71970;BME280;59838;52.152;5.436;2023-12-20T01:26:52;101610.38;;;4.07;100.00
71970;BME280;59838;52.152;5.436;2023-12-20T01:29:18;101610.94;;;4.11;100.00
71970;BME280;59838;52.152;5.436;2023-12-20T01:31:45;101621.91;;;4.13;100.00
71970;BME280;59838;52.152;5.436;2023-12-20T01:34:12;101613.59;;;4.20;100.00
71970;BME280;59838;52.152;5.436;2023-12-20T01:36:39;101613.59;;;4.20;100.00
71970;BME280;59838;52.152;5.436;2023-12-20T01:39:06;101609.63;;;4.28;100.00
71970;BME280;59838;52.152;5.436;2023-12-20T01:41:49;101608.06;;;4.36;100.00
71970;BME280;59838;52.152;5.436;2023-12-20T01:44:16;101602.75;;;4.49;100.00
71970;BME280;59838;52.152;5.436;2023-12-20T01:46:43;101592.78;;;4.56;100.00
71970;BME280;59838;52.152;5.436;2023-12-20T01:49:09;101587.38;;;4.59;100.00
71970;BME280;59838;52.152;5.436;2023-12-20T01:51:36;101589.28;;;4.57;100.00
71970;BME280;59838;52.152;5.436;2023-12-20T01:54:03;101587.06;;;4.52;100.00
71970;BME280;59838;52.152;5.436;2023-12-20T01:56:31;101594.09;;;4.50;100.00
71970;BME280;59838;52.152;5.436;2023-12-20T01:58:58;101600.31;;;4.48;100.00
71970;BME280;59838;52.152;5.436;2023-12-20T02:01:27;101590.69;;;4.50;100.00
71970;BME280;59838;52.152;5.436;2023-12-20T02:03:55;101589.09;;;4.49;100.00
71970;BME280;59838;52.152;5.436;2023-12-20T02:06:23;101586.50;;;4.49;100.00
71970;BME280;59838;52.152;5.436;2023-12-20T02:08:51;101596.94;;;4.47;100.00
71970;BME280;59838;52.152;5.436;2023-12-20T02:11:17;101590.13;;;4.46;100.00
71970;BME280;59838;52.152;5.436;2023-12-20T02:13:44;101596.09;;;4.47;100.00
71970;BME280;59838;52.152;5.436;2023-12-20T02:16:10;101593.03;;;4.53;100.00
71970;BME280;59838;52.152;5.436;2023-12-20T02:18:42;101582.38;;;4.57;100.00
71970;BME280;59838;52.152;5.436;2023-12-20T02:21:09;101588.63;;;4.65;100.00
71970;BME280;59838;52.152;5.436;2023-12-20T02:23:35;101588.25;;;4.69;100.00
71970;BME280;59838;52.152;5.436;2023-12-20T02:26:03;101586.41;;;4.71;100.00
71970;BME280;59838;52.152;5.436;2023-12-20T02:28:31;101586.97;;;4.75;100.00
71970;BME280;59838;52.152;5.436;2023-12-20T02:30:58;101586.97;;;4.75;100.00
71970;BME280;59838;52.152;5.436;2023-12-20T02:33:26;101584.50;;;4.73;100.00
71970;BME280;59838;52.152;5.436;2023-12-20T02:35:52;101585.56;;;4.71;100.00
71970;BME280;59838;52.152;5.436;2023-12-20T02:38:19;101584.88;;;4.69;100.00
71970;BME280;59838;52.152;5.436;2023-12-20T02:40:45;101579.50;;;4.72;100.00
71970;BME280;59838;52.152;5.436;2023-12-20T02:43:15;101579.50;;;4.72;100.00
71970;BME280;59838;52.152;5.436;2023-12-20T02:45:42;101574.34;;;4.72;100.00
71970;BME280;59838;52.152;5.436;2023-12-20T02:48:09;101567.41;;;4.72;100.00
71970;BME280;59838;52.152;5.436;2023-12-20T02:50:35;101559.03;;;4.70;100.00
71970;BME280;59838;52.152;5.436;2023-12-20T02:53:02;101561.59;;;4.70;100.00
71970;BME280;59838;52.152;5.436;2023-12-20T02:55:28;101564.97;;;4.71;100.00
71970;BME280;59838;52.152;5.436;2023-12-20T02:57:55;101564.03;;;4.72;100.00
71970;BME280;59838;52.152;5.436;2023-12-20T03:00:21;101555.22;;;4.74;100.00
71970;BME280;59838;52.152;5.436;2023-12-20T03:02:48;101558.09;;;4.71;100.00
71970;BME280;59838;52.152;5.436;2023-12-20T03:05:15;101548.97;;;4.67;100.00
71970;BME280;59838;52.152;5.436;2023-12-20T03:07:41;101554.25;;;4.66;100.00
71970;BME280;59838;52.152;5.436;2023-12-20T03:10:08;101551.72;;;4.75;100.00
71970;BME280;59838;52.152;5.436;2023-12-20T03:12:45;101556.63;;;4.79;100.00
71970;BME280;59838;52.152;5.436;2023-12-20T03:15:12;101542.00;;;4.79;100.00
71970;BME280;59838;52.152;5.436;2023-12-20T03:17:39;101544.69;;;4.78;100.00
71970;BME280;59838;52.152;5.436;2023-12-20T03:20:06;101545.53;;;4.78;100.00
71970;BME280;59838;52.152;5.436;2023-12-20T03:22:33;101541.06;;;4.80;100.00
71970;BME280;59838;52.152;5.436;2023-12-20T03:25:00;101532.66;;;4.78;100.00
71970;BME280;59838;52.152;5.436;2023-12-20T03:27:27;101526.91;;;4.74;100.00
71970;BME280;59838;52.152;5.436;2023-12-20T03:29:53;101520.97;;;4.74;100.00
71970;BME280;59838;52.152;5.436;2023-12-20T03:32:20;101527.03;;;4.73;100.00
71970;BME280;59838;52.152;5.436;2023-12-20T03:34:46;101536.28;;;4.75;100.00
71970;BME280;59838;52.152;5.436;2023-12-20T03:37:15;101533.34;;;4.80;100.00
71970;BME280;59838;52.152;5.436;2023-12-20T03:39:41;101531.06;;;4.87;100.00
71970;BME280;59838;52.152;5.436;2023-12-20T03:42:08;101542.75;;;4.91;100.00
71970;BME280;59838;52.152;5.436;2023-12-20T03:44:38;101542.50;;;4.94;100.00
71970;BME280;59838;52.152;5.436;2023-12-20T03:47:05;101543.19;;;4.96;100.00
71970;BME280;59838;52.152;5.436;2023-12-20T03:49:32;101540.47;;;4.98;100.00
71970;BME280;59838;52.152;5.436;2023-12-20T03:51:59;101539.63;;;4.97;100.00
71970;BME280;59838;52.152;5.436;2023-12-20T03:54:25;101541.53;;;4.95;100.00
71970;BME280;59838;52.152;5.436;2023-12-20T03:56:52;101538.16;;;4.94;100.00
71970;BME280;59838;52.152;5.436;2023-12-20T03:59:18;101531.09;;;4.97;100.00
71970;BME280;59838;52.152;5.436;2023-12-20T04:01:45;101533.44;;;5.00;100.00
71970;BME280;59838;52.152;5.436;2023-12-20T04:04:12;101538.44;;;5.01;100.00
71970;BME280;59838;52.152;5.436;2023-12-20T04:06:39;101529.25;;;5.08;100.00
71970;BME280;59838;52.152;5.436;2023-12-20T04:09:08;101533.75;;;5.16;100.00
71970;BME280;59838;52.152;5.436;2023-12-20T04:11:44;101542.50;;;5.25;100.00
71970;BME280;59838;52.152;5.436;2023-12-20T04:14:10;101536.94;;;5.29;100.00
71970;BME280;59838;52.152;5.436;2023-12-20T04:16:37;101524.75;;;5.31;100.00
71970;BME280;59838;52.152;5.436;2023-12-20T04:19:05;101519.22;;;5.36;100.00
71970;BME280;59838;52.152;5.436;2023-12-20T04:21:31;101519.22;;;5.36;100.00
71970;BME280;59838;52.152;5.436;2023-12-20T04:23:58;101525.84;;;5.39;100.00
71970;BME280;59838;52.152;5.436;2023-12-20T04:26:25;101518.13;;;5.39;100.00
71970;BME280;59838;52.152;5.436;2023-12-20T04:28:51;101521.94;;;5.44;100.00
71970;BME280;59838;52.152;5.436;2023-12-20T04:31:20;101527.25;;;5.53;100.00
71970;BME280;59838;52.152;5.436;2023-12-20T04:33:47;101524.97;;;5.59;100.00
71970;BME280;59838;52.152;5.436;2023-12-20T04:36:14;101525.25;;;5.66;100.00
71970;BME280;59838;52.152;5.436;2023-12-20T04:38:41;101528.22;;;5.71;100.00
71970;BME280;59838;52.152;5.436;2023-12-20T04:41:08;101532.31;;;5.74;100.00
71970;BME280;59838;52.152;5.436;2023-12-20T04:43:34;101521.03;;;5.75;100.00
71970;BME280;59838;52.152;5.436;2023-12-20T04:46:01;101518.31;;;5.76;100.00
71970;BME280;59838;52.152;5.436;2023-12-20T04:48:27;101523.88;;;5.81;100.00
71970;BME280;59838;52.152;5.436;2023-12-20T04:50:54;101527.97;;;5.84;100.00
71970;BME280;59838;52.152;5.436;2023-12-20T04:53:20;101521.88;;;5.85;100.00
71970;BME280;59838;52.152;5.436;2023-12-20T04:55:47;101510.34;;;5.89;100.00
71970;BME280;59838;52.152;5.436;2023-12-20T04:58:13;101513.59;;;5.91;100.00
71970;BME280;59838;52.152;5.436;2023-12-20T05:00:40;101515.91;;;5.94;100.00
71970;BME280;59838;52.152;5.436;2023-12-20T05:03:07;101504.53;;;5.97;100.00
71970;BME280;59838;52.152;5.436;2023-12-20T05:05:33;101496.66;;;5.98;100.00
71970;BME280;59838;52.152;5.436;2023-12-20T05:08:00;101512.94;;;5.99;100.00
71970;BME280;59838;52.152;5.436;2023-12-20T05:10:26;101518.81;;;6.01;100.00
71970;BME280;59838;52.152;5.436;2023-12-20T05:12:54;101515.94;;;6.04;100.00
71970;BME280;59838;52.152;5.436;2023-12-20T05:15:21;101510.63;;;6.06;100.00
71970;BME280;59838;52.152;5.436;2023-12-20T05:17:47;101507.66;;;6.10;100.00
71970;BME280;59838;52.152;5.436;2023-12-20T05:20:14;101508.06;;;6.15;100.00
71970;BME280;59838;52.152;5.436;2023-12-20T05:22:41;101513.34;;;6.14;100.00
71970;BME280;59838;52.152;5.436;2023-12-20T05:25:07;101512.28;;;6.16;100.00
71970;BME280;59838;52.152;5.436;2023-12-20T05:27:34;101512.13;;;6.18;100.00
71970;BME280;59838;52.152;5.436;2023-12-20T05:30:01;101516.34;;;6.19;100.00
71970;BME280;59838;52.152;5.436;2023-12-20T05:32:27;101515.25;;;6.21;100.00
71970;BME280;59838;52.152;5.436;2023-12-20T05:34:54;101512.53;;;6.23;100.00
71970;BME280;59838;52.152;5.436;2023-12-20T05:37:20;101510.50;;;6.27;100.00
71970;BME280;59838;52.152;5.436;2023-12-20T05:39:47;101511.19;;;6.29;100.00
71970;BME280;59838;52.152;5.436;2023-12-20T05:42:13;101513.63;;;6.30;100.00
71970;BME280;59838;52.152;5.436;2023-12-20T05:44:40;101504.91;;;6.31;100.00
71970;BME280;59838;52.152;5.436;2023-12-20T05:47:06;101509.00;;;6.34;100.00
71970;BME280;59838;52.152;5.436;2023-12-20T05:49:33;101513.19;;;6.35;100.00
71970;BME280;59838;52.152;5.436;2023-12-20T05:55:47;101509.53;;;6.37;100.00
71970;BME280;59838;52.152;5.436;2023-12-20T05:58:13;101516.34;;;6.38;100.00
71970;BME280;59838;52.152;5.436;2023-12-20T06:01:11;101513.06;;;6.36;100.00
71970;BME280;59838;52.152;5.436;2023-12-20T06:03:41;101508.72;;;6.37;100.00
71970;BME280;59838;52.152;5.436;2023-12-20T06:06:08;101507.91;;;6.36;100.00
71970;BME280;59838;52.152;5.436;2023-12-20T06:08:42;101512.78;;;6.39;100.00
71970;BME280;59838;52.152;5.436;2023-12-20T06:11:10;101509.25;;;6.40;100.00
71970;BME280;59838;52.152;5.436;2023-12-20T06:13:37;101512.78;;;6.39;100.00
71970;BME280;59838;52.152;5.436;2023-12-20T06:16:05;101506.81;;;6.39;100.00
71970;BME280;59838;52.152;5.436;2023-12-20T06:18:32;101506.53;;;6.42;100.00
71970;BME280;59838;52.152;5.436;2023-12-20T06:20:59;101496.88;;;6.44;100.00
71970;BME280;59838;52.152;5.436;2023-12-20T06:23:26;101497.69;;;6.45;100.00
71970;BME280;59838;52.152;5.436;2023-12-20T06:25:53;101490.13;;;6.43;100.00
71970;BME280;59838;52.152;5.436;2023-12-20T06:28:20;101490.91;;;6.44;100.00
71970;BME280;59838;52.152;5.436;2023-12-20T06:30:47;101490.78;;;6.45;100.00
71970;BME280;59838;52.152;5.436;2023-12-20T06:33:15;101497.28;;;6.49;100.00
71970;BME280;59838;52.152;5.436;2023-12-20T06:35:42;101502.31;;;6.51;100.00
71970;BME280;59838;52.152;5.436;2023-12-20T06:38:09;101496.19;;;6.52;100.00
71970;BME280;59838;52.152;5.436;2023-12-20T06:40:36;101498.78;;;6.52;100.00
71970;BME280;59838;52.152;5.436;2023-12-20T06:43:02;101493.75;;;6.50;100.00
71970;BME280;59838;52.152;5.436;2023-12-20T06:45:41;101501.50;;;6.50;100.00
71970;BME280;59838;52.152;5.436;2023-12-20T06:48:08;101493.75;;;6.50;100.00
71970;BME280;59838;52.152;5.436;2023-12-20T06:50:36;101477.47;;;6.50;100.00
71970;BME280;59838;52.152;5.436;2023-12-20T06:53:06;101475.53;;;6.52;100.00
71970;BME280;59838;52.152;5.436;2023-12-20T06:55:36;101477.19;;;6.53;100.00
71970;BME280;59838;52.152;5.436;2023-12-20T06:58:04;101480.28;;;6.56;100.00
71970;BME280;59838;52.152;5.436;2023-12-20T07:00:32;101477.56;;;6.58;100.00
71970;BME280;59838;52.152;5.436;2023-12-20T07:02:59;101481.75;;;6.59;100.00
71970;BME280;59838;52.152;5.436;2023-12-20T07:05:25;101474.16;;;6.57;100.00
71970;BME280;59838;52.152;5.436;2023-12-20T07:07:53;101481.75;;;6.59;100.00
71970;BME280;59838;52.152;5.436;2023-12-20T07:10:20;101479.59;;;6.64;100.00
71970;BME280;59838;52.152;5.436;2023-12-20T07:12:47;101488.00;;;6.66;100.00
71970;BME280;59838;52.152;5.436;2023-12-20T07:15:15;101482.56;;;6.69;100.00
71970;BME280;59838;52.152;5.436;2023-12-20T07:17:41;101478.22;;;6.70;100.00
71970;BME280;59838;52.152;5.436;2023-12-20T07:20:09;101479.00;;;6.70;100.00
71970;BME280;59838;52.152;5.436;2023-12-20T07:22:38;101478.06;;;6.71;100.00
71970;BME280;59838;52.152;5.436;2023-12-20T07:25:06;101474.41;;;6.74;100.00
71970;BME280;59838;52.152;5.436;2023-12-20T07:27:33;101471.81;;;6.74;100.00
71970;BME280;59838;52.152;5.436;2023-12-20T07:29:59;101469.09;;;6.75;100.00
71970;BME280;59838;52.152;5.436;2023-12-20T07:32:26;101467.03;;;6.79;100.00
71970;BME280;59838;52.152;5.436;2023-12-20T07:34:52;101467.19;;;6.77;100.00
71970;BME280;59838;52.152;5.436;2023-12-20T07:37:20;101458.47;;;6.78;100.00
71970;BME280;59838;52.152;5.436;2023-12-20T07:39:47;101463.34;;;6.82;100.00
71970;BME280;59838;52.152;5.436;2023-12-20T07:42:14;101455.59;;;6.82;100.00
71970;BME280;59838;52.152;5.436;2023-12-20T07:44:40;101465.94;;;6.82;100.00
71970;BME280;59838;52.152;5.436;2023-12-20T07:47:09;101467.28;;;6.86;100.00
71970;BME280;59838;52.152;5.436;2023-12-20T07:49:39;101484.41;;;6.87;100.00
71970;BME280;59838;52.152;5.436;2023-12-20T07:52:06;101477.63;;;6.86;100.00
71970;BME280;59838;52.152;5.436;2023-12-20T07:54:32;101474.09;;;6.87;100.00
71970;BME280;59838;52.152;5.436;2023-12-20T07:56:59;101473.25;;;6.86;100.00
71970;BME280;59838;52.152;5.436;2023-12-20T07:59:26;101482.50;;;6.89;100.00
71970;BME280;59838;52.152;5.436;2023-12-20T08:01:58;101490.91;;;6.91;100.00
71970;BME280;59838;52.152;5.436;2023-12-20T08:04:26;101492.94;;;6.97;100.00
71970;BME280;59838;52.152;5.436;2023-12-20T08:06:52;101497.97;;;6.99;100.00
71970;BME280;59838;52.152;5.436;2023-12-20T08:09:19;101502.31;;;6.98;100.00
71970;BME280;59838;52.152;5.436;2023-12-20T08:11:46;101499.88;;;6.97;100.00
71970;BME280;59838;52.152;5.436;2023-12-20T08:14:14;101505.06;;;6.97;100.00
71970;BME280;59838;52.152;5.436;2023-12-20T08:16:43;101513.47;;;6.99;100.00
71970;BME280;59838;52.152;5.436;2023-12-20T08:19:09;101500.53;;;6.99;100.00
71970;BME280;59838;52.152;5.436;2023-12-20T08:21:36;101499.75;;;6.98;100.00
71970;BME280;59838;52.152;5.436;2023-12-20T08:24:04;101497.81;;;7.00;100.00
71970;BME280;59838;52.152;5.436;2023-12-20T08:26:32;101494.13;;;7.03;100.00
71970;BME280;59838;52.152;5.436;2023-12-20T08:29:02;101491.41;;;7.04;100.00
71970;BME280;59838;52.152;5.436;2023-12-20T08:31:29;101492.22;;;7.05;100.00
71970;BME280;59838;52.152;5.436;2023-12-20T08:33:55;101490.44;;;7.05;100.00
71970;BME280;59838;52.152;5.436;2023-12-20T08:36:23;101491.13;;;7.07;100.00
71970;BME280;59838;52.152;5.436;2023-12-20T08:38:50;101475.47;;;7.09;100.00
71970;BME280;59838;52.152;5.436;2023-12-20T08:41:17;101479.41;;;7.13;100.00
71970;BME280;59838;52.152;5.436;2023-12-20T08:43:44;101483.59;;;7.14;100.00
71970;BME280;59838;52.152;5.436;2023-12-20T08:46:10;101492.03;;;7.16;100.00
71970;BME280;59838;52.152;5.436;2023-12-20T08:48:38;101482.66;;;7.15;100.00
71970;BME280;59838;52.152;5.436;2023-12-20T08:51:05;101482.66;;;7.15;100.00
71970;BME280;59838;52.152;5.436;2023-12-20T08:53:35;101484.44;;;7.14;100.00
71970;BME280;59838;52.152;5.436;2023-12-20T08:56:01;101482.00;;;7.13;100.00
71970;BME280;59838;52.152;5.436;2023-12-20T08:58:28;101473.41;;;7.12;100.00
71970;BME280;59838;52.152;5.436;2023-12-20T09:00:55;101491.63;;;7.11;100.00
71970;BME280;59838;52.152;5.436;2023-12-20T09:03:21;101490.16;;;7.08;100.00
71970;BME280;59838;52.152;5.436;2023-12-20T09:05:48;101486.09;;;7.06;100.00
71970;BME280;59838;52.152;5.436;2023-12-20T09:08:14;101485.28;;;7.05;100.00
71970;BME280;59838;52.152;5.436;2023-12-20T09:10:41;101477.69;;;7.04;100.00
71970;BME280;59838;52.152;5.436;2023-12-20T09:13:07;101475.22;;;7.02;100.00
71970;BME280;59838;52.152;5.436;2023-12-20T09:15:34;101484.47;;;7.05;100.00
71970;BME280;59838;52.152;5.436;2023-12-20T09:18:02;101478.34;;;7.06;100.00
71970;BME280;59838;52.152;5.436;2023-12-20T09:20:30;101480.78;;;7.07;100.00
71970;BME280;59838;52.152;5.436;2023-12-20T09:22:57;101483.22;;;7.09;100.00
71970;BME280;59838;52.152;5.436;2023-12-20T09:25:23;101478.06;;;7.09;100.00
71970;BME280;59838;52.152;5.436;2023-12-20T09:27:50;101477.25;;;7.08;100.00
71970;BME280;59838;52.152;5.436;2023-12-20T09:30:17;101470.97;;;7.11;100.00
71970;BME280;59838;52.152;5.436;2023-12-20T09:32:53;101477.47;;;7.15;100.00
71970;BME280;59838;52.152;5.436;2023-12-20T09:35:20;101477.19;;;7.18;100.00
71970;BME280;59838;52.152;5.436;2023-12-20T09:37:46;101476.06;;;7.21;100.00
71970;BME280;59838;52.152;5.436;2023-12-20T09:40:13;101483.25;;;7.27;100.00
71970;BME280;59838;52.152;5.436;2023-12-20T09:42:56;101481.88;;;7.32;100.00
71970;BME280;59838;52.152;5.436;2023-12-20T09:45:24;101485.13;;;7.35;100.00
71970;BME280;59838;52.152;5.436;2023-12-20T09:47:53;101472.72;;;7.38;100.00
71970;BME280;59838;52.152;5.436;2023-12-20T09:50:21;101479.91;;;7.44;100.00
71970;BME280;59838;52.152;5.436;2023-12-20T09:52:52;101480.28;;;7.49;100.00
71970;BME280;59838;52.152;5.436;2023-12-20T09:55:20;101478.53;;;7.50;100.00
71970;BME280;59838;52.152;5.436;2023-12-20T09:57:48;101476.75;;;7.50;100.00
71970;BME280;59838;52.152;5.436;2023-12-20T10:00:16;101474.66;;;7.54;100.00
71970;BME280;59838;52.152;5.436;2023-12-20T10:02:56;101479.41;;;7.59;100.00
71970;BME280;59838;52.152;5.436;2023-12-20T10:05:28;101484.78;;;7.65;100.00
71970;BME280;59838;52.152;5.436;2023-12-20T10:07:55;101490.47;;;7.69;100.00
71970;BME280;59838;52.152;5.436;2023-12-20T10:10:22;101493.75;;;7.71;100.00
71970;BME280;59838;52.152;5.436;2023-12-20T10:13:10;101495.72;;;7.77;100.00
71970;BME280;59838;52.152;5.436;2023-12-20T10:15:37;101488.81;;;7.78;100.00
71970;BME280;59838;52.152;5.436;2023-12-20T10:18:05;101492.19;;;7.78;100.00
71970;BME280;59838;52.152;5.436;2023-12-20T10:20:32;101501.59;;;7.79;100.00
71970;BME280;59838;52.152;5.436;2023-12-20T10:23:00;101502.91;;;7.83;100.00
71970;BME280;59838;52.152;5.436;2023-12-20T10:25:27;101489.81;;;7.85;100.00
71970;BME280;59838;52.152;5.436;2023-12-20T10:28:16;101490.34;;;7.88;100.00
71970;BME280;59838;52.152;5.436;2023-12-20T10:30:50;101488.44;;;7.91;100.00
71970;BME280;59838;52.152;5.436;2023-12-20T10:33:24;101477.78;;;7.94;100.00
71970;BME280;59838;52.152;5.436;2023-12-20T10:35:53;101474.72;;;7.98;100.00
71970;BME280;59838;52.152;5.436;2023-12-20T10:38:20;101482.19;;;8.01;100.00
71970;BME280;59838;52.152;5.436;2023-12-20T10:40:47;101477.03;;;8.01;100.00
71970;BME280;59838;52.152;5.436;2023-12-20T10:43:15;101469.47;;;8.08;100.00
71970;BME280;59838;52.152;5.436;2023-12-20T10:45:42;101470.50;;;8.15;100.00
71970;BME280;59838;52.152;5.436;2023-12-20T10:48:10;101467.19;;;8.23;100.00
71970;BME280;59838;52.152;5.436;2023-12-20T10:50:39;101469.97;;;8.30;100.00
71970;BME280;59838;52.152;5.436;2023-12-20T10:53:07;101465.00;;;8.36;100.00
71970;BME280;59838;52.152;5.436;2023-12-20T10:55:33;101470.66;;;8.40;100.00
71970;BME280;59838;52.152;5.436;2023-12-20T10:58:01;101454.88;;;8.43;100.00
71970;BME280;59838;52.152;5.436;2023-12-20T11:00:29;101464.63;;;8.49;100.00
71970;BME280;59838;52.152;5.436;2023-12-20T11:03:00;101459.94;;;8.53;100.00
71970;BME280;59838;52.152;5.436;2023-12-20T11:05:36;101460.59;;;8.55;100.00
71970;BME280;59838;52.152;5.436;2023-12-20T11:08:22;101458.31;;;8.52;100.00
71970;BME280;59838;52.152;5.436;2023-12-20T11:10:58;101452.31;;;8.51;100.00
71970;BME280;59838;52.152;5.436;2023-12-20T11:13:31;101451.38;;;8.52;100.00
71970;BME280;59838;52.152;5.436;2023-12-20T11:15:59;101443.75;;;8.51;100.00
71970;BME280;59838;52.152;5.436;2023-12-20T11:18:30;101449.63;;;8.61;100.00
71970;BME280;59838;52.152;5.436;2023-12-20T11:21:01;101444.94;;;8.65;100.00
71970;BME280;59838;52.152;5.436;2023-12-20T11:23:30;101446.56;;;8.66;100.00
71970;BME280;59838;52.152;5.436;2023-12-20T11:25:57;101433.94;;;8.63;100.00
71970;BME280;59838;52.152;5.436;2023-12-20T11:28:26;101418.03;;;8.57;100.00
71970;BME280;59838;52.152;5.436;2023-12-20T11:30:55;101431.16;;;8.56;100.00
71970;BME280;59838;52.152;5.436;2023-12-20T11:33:23;101425.34;;;8.62;100.00
71970;BME280;59838;52.152;5.436;2023-12-20T11:35:56;101427.00;;;8.71;100.00
71970;BME280;59838;52.152;5.436;2023-12-20T11:38:23;101427.84;;;8.80;100.00
71970;BME280;59838;52.152;5.436;2023-12-20T11:40:50;101421.75;;;8.89;100.00
71970;BME280;59838;52.152;5.436;2023-12-20T11:43:36;101421.78;;;8.98;100.00
71970;BME280;59838;52.152;5.436;2023-12-20T11:46:07;101419.34;;;8.96;100.00
71970;BME280;59838;52.152;5.436;2023-12-20T11:48:36;101406.69;;;8.93;100.00
71970;BME280;59838;52.152;5.436;2023-12-20T11:51:09;101403.94;;;8.94;100.00
71970;BME280;59838;52.152;5.436;2023-12-20T11:53:36;101398.59;;;8.96;100.00
71970;BME280;59838;52.152;5.436;2023-12-20T11:56:05;101392.59;;;8.95;100.00
71970;BME280;59838;52.152;5.436;2023-12-20T11:58:33;101395.84;;;8.98;100.00
71970;BME280;59838;52.152;5.436;2023-12-20T12:01:00;101403.31;;;9.01;100.00
71970;BME280;59838;52.152;5.436;2023-12-20T12:03:28;101399.72;;;9.02;100.00
71970;BME280;59838;52.152;5.436;2023-12-20T12:05:55;101403.16;;;9.02;100.00
71970;BME280;59838;52.152;5.436;2023-12-20T12:08:22;101398.94;;;9.01;100.00
71970;BME280;59838;52.152;5.436;2023-12-20T12:10:48;101404.28;;;9.00;100.00
71970;BME280;59838;52.152;5.436;2023-12-20T12:13:15;101396.50;;;9.00;100.00
71970;BME280;59838;52.152;5.436;2023-12-20T12:15:44;101410.72;;;8.95;100.00
71970;BME280;59838;52.152;5.436;2023-12-20T12:18:15;101403.25;;;8.92;100.00
71970;BME280;59838;52.152;5.436;2023-12-20T12:20:42;101407.50;;;8.93;100.00
71970;BME280;59838;52.152;5.436;2023-12-20T12:23:09;101416.91;;;8.94;100.00
71970;BME280;59838;52.152;5.436;2023-12-20T12:25:36;101408.66;;;8.99;100.00
71970;BME280;59838;52.152;5.436;2023-12-20T12:28:09;101392.94;;;9.01;100.00
71970;BME280;59838;52.152;5.436;2023-12-20T12:30:36;101384.84;;;9.04;100.00
71970;BME280;59838;52.152;5.436;2023-12-20T12:33:11;101389.06;;;9.05;100.00
71970;BME280;59838;52.152;5.436;2023-12-20T12:35:40;101384.19;;;9.02;100.00
71970;BME280;59838;52.152;5.436;2023-12-20T12:38:07;101375.59;;;9.01;100.00
71970;BME280;59838;52.152;5.436;2023-12-20T12:40:37;101386.94;;;9.00;100.00
71970;BME280;59838;52.152;5.436;2023-12-20T12:43:03;101375.13;;;8.98;100.00
71970;BME280;59838;52.152;5.436;2023-12-20T12:45:30;101364.09;;;8.95;100.00
71970;BME280;59838;52.152;5.436;2023-12-20T12:47:57;101358.41;;;8.92;100.00
71970;BME280;59838;52.152;5.436;2023-12-20T12:50:24;101367.97;;;8.91;100.00
71970;BME280;59838;52.152;5.436;2023-12-20T12:52:51;101370.56;;;8.91;100.00
71970;BME280;59838;52.152;5.436;2023-12-20T12:55:17;101367.31;;;8.89;100.00
71970;BME280;59838;52.152;5.436;2023-12-20T12:57:44;101371.84;;;8.87;100.00